sensor_id;sensor_type;location;lat;lon;timestamp;P1;durP1;ratioP1;P2;durP2;ratioP2
56631;SDS011;42503;39.928;-75.152;2022-08-21T00:00:51;2.45;;;2.25;;
56631;SDS011;42503;39.928;-75.152;2022-08-21T00:02:56;1.90;;;1.80;;
56631;SDS011;42503;39.928;-75.152;2022-08-21T00:04:57;1.80;;;1.70;;
56631;SDS011;42503;39.928;-75.152;2022-08-21T00:06:58;2.53;;;2.33;;
56631;SDS011;42503;39.928;-75.152;2022-08-21T00:09:03;2.10;;;2.00;;
56631;SDS011;42503;39.928;-75.152;2022-08-21T00:11:04;2.17;;;1.98;;
56631;SDS011;42503;39.928;-75.152;2022-08-21T00:13:06;1.88;;;1.77;;
56631;SDS011;42503;39.928;-75.152;2022-08-21T00:15:08;2.60;;;2.40;;
56631;SDS011;42503;39.928;-75.152;2022-08-21T00:17:09;2.13;;;1.98;;
56631;SDS011;42503;39.928;-75.152;2022-08-21T00:19:10;2.08;;;1.88;;
56631;SDS011;42503;39.928;-75.152;2022-08-21T00:21:14;2.80;;;2.30;;
56631;SDS011;42503;39.928;-75.152;2022-08-21T00:23:15;2.40;;;2.20;;
56631;SDS011;42503;39.928;-75.152;2022-08-21T00:25:17;2.00;;;1.90;;
56631;SDS011;42503;39.928;-75.152;2022-08-21T00:27:18;2.33;;;2.13;;
56631;SDS011;42503;39.928;-75.152;2022-08-21T00:29:19;2.03;;;1.92;;
56631;SDS011;42503;39.928;-75.152;2022-08-21T00:31:20;2.05;;;1.90;;
56631;SDS011;42503;39.928;-75.152;2022-08-21T00:33:21;2.00;;;1.90;;
56631;SDS011;42503;39.928;-75.152;2022-08-21T00:35:27;2.13;;;2.03;;
56631;SDS011;42503;39.928;-75.152;2022-08-21T00:37:28;2.28;;;2.13;;
56631;SDS011;42503;39.928;-75.152;2022-08-21T00:39:29;1.85;;;1.75;;
56631;SDS011;42503;39.928;-75.152;2022-08-21T00:41:30;2.05;;;1.80;;
56631;SDS011;42503;39.928;-75.152;2022-08-21T00:43:32;1.85;;;1.75;;
56631;SDS011;42503;39.928;-75.152;2022-08-21T00:45:33;2.17;;;2.08;;
56631;SDS011;42503;39.928;-75.152;2022-08-21T00:47:34;1.95;;;1.85;;
56631;SDS011;42503;39.928;-75.152;2022-08-21T00:49:35;2.13;;;1.92;;
56631;SDS011;42503;39.928;-75.152;2022-08-21T00:51:38;2.03;;;1.90;;
56631;SDS011;42503;39.928;-75.152;2022-08-21T00:53:43;1.90;;;1.77;;
56631;SDS011;42503;39.928;-75.152;2022-08-21T00:57:47;2.00;;;1.80;;
56631;SDS011;42503;39.928;-75.152;2022-08-21T00:59:49;1.95;;;1.85;;
56631;SDS011;42503;39.928;-75.152;2022-08-21T01:01:52;1.90;;;1.80;;
56631;SDS011;42503;39.928;-75.152;2022-08-21T01:03:52;2.13;;;1.60;;
56631;SDS011;42503;39.928;-75.152;2022-08-21T01:05:53;2.08;;;1.98;;
56631;SDS011;42503;39.928;-75.152;2022-08-21T01:07:54;2.08;;;1.92;;
56631;SDS011;42503;39.928;-75.152;2022-08-21T01:09:57;2.20;;;2.00;;
56631;SDS011;42503;39.928;-75.152;2022-08-21T01:11:58;2.15;;;2.05;;
56631;SDS011;42503;39.928;-75.152;2022-08-21T01:14:00;1.90;;;1.80;;
56631;SDS011;42503;39.928;-75.152;2022-08-21T01:16:02;1.88;;;1.77;;
56631;SDS011;42503;39.928;-75.152;2022-08-21T01:18:04;2.25;;;2.05;;
56631;SDS011;42503;39.928;-75.152;2022-08-21T01:20:07;2.05;;;1.85;;
56631;SDS011;42503;39.928;-75.152;2022-08-21T01:22:08;1.80;;;1.70;;
56631;SDS011;42503;39.928;-75.152;2022-08-21T01:24:09;2.65;;;2.17;;
56631;SDS011;42503;39.928;-75.152;2022-08-21T01:26:10;2.00;;;1.90;;
56631;SDS011;42503;39.928;-75.152;2022-08-21T01:28:13;1.88;;;1.67;;
56631;SDS011;42503;39.928;-75.152;2022-08-21T01:30:21;2.30;;;2.10;;
56631;SDS011;42503;39.928;-75.152;2022-08-21T01:32:22;2.22;;;2.03;;
56631;SDS011;42503;39.928;-75.152;2022-08-21T01:34:29;2.25;;;2.05;;
56631;SDS011;42503;39.928;-75.152;2022-08-21T01:36:31;1.90;;;1.80;;
56631;SDS011;42503;39.928;-75.152;2022-08-21T01:38:32;2.20;;;2.00;;
56631;SDS011;42503;39.928;-75.152;2022-08-21T01:40:33;1.88;;;1.77;;
56631;SDS011;42503;39.928;-75.152;2022-08-21T01:42:34;3.67;;;1.80;;
56631;SDS011;42503;39.928;-75.152;2022-08-21T01:44:35;2.20;;;2.00;;
56631;SDS011;42503;39.928;-75.152;2022-08-21T01:46:36;2.08;;;1.98;;
56631;SDS011;42503;39.928;-75.152;2022-08-21T01:48:37;2.20;;;2.00;;
56631;SDS011;42503;39.928;-75.152;2022-08-21T01:50:38;2.05;;;1.95;;
56631;SDS011;42503;39.928;-75.152;2022-08-21T01:52:39;1.75;;;1.65;;
56631;SDS011;42503;39.928;-75.152;2022-08-21T01:54:43;1.92;;;1.83;;
56631;SDS011;42503;39.928;-75.152;2022-08-21T01:56:46;2.30;;;2.10;;
56631;SDS011;42503;39.928;-75.152;2022-08-21T01:58:49;1.90;;;1.80;;
56631;SDS011;42503;39.928;-75.152;2022-08-21T02:00:50;1.95;;;1.73;;
56631;SDS011;42503;39.928;-75.152;2022-08-21T02:02:51;2.28;;;2.08;;
56631;SDS011;42503;39.928;-75.152;2022-08-21T02:04:52;1.88;;;1.77;;
56631;SDS011;42503;39.928;-75.152;2022-08-21T02:06:53;1.92;;;1.83;;
56631;SDS011;42503;39.928;-75.152;2022-08-21T02:08:54;2.05;;;1.85;;
56631;SDS011;42503;39.928;-75.152;2022-08-21T02:10:55;1.80;;;1.70;;
56631;SDS011;42503;39.928;-75.152;2022-08-21T02:12:56;2.95;;;2.10;;
56631;SDS011;42503;39.928;-75.152;2022-08-21T02:14:57;1.80;;;1.70;;
56631;SDS011;42503;39.928;-75.152;2022-08-21T02:16:58;1.77;;;1.67;;
56631;SDS011;42503;39.928;-75.152;2022-08-21T02:18:59;2.10;;;1.95;;
56631;SDS011;42503;39.928;-75.152;2022-08-21T02:21:00;1.83;;;1.73;;
56631;SDS011;42503;39.928;-75.152;2022-08-21T02:23:01;2.20;;;2.00;;
56631;SDS011;42503;39.928;-75.152;2022-08-21T02:25:02;1.67;;;1.58;;
56631;SDS011;42503;39.928;-75.152;2022-08-21T02:27:03;1.90;;;1.80;;
56631;SDS011;42503;39.928;-75.152;2022-08-21T02:29:04;1.55;;;1.45;;
56631;SDS011;42503;39.928;-75.152;2022-08-21T02:31:05;1.70;;;1.60;;
56631;SDS011;42503;39.928;-75.152;2022-08-21T02:33:07;1.70;;;1.60;;
56631;SDS011;42503;39.928;-75.152;2022-08-21T02:35:09;1.60;;;1.50;;
56631;SDS011;42503;39.928;-75.152;2022-08-21T02:37:11;2.03;;;1.90;;
56631;SDS011;42503;39.928;-75.152;2022-08-21T02:39:12;1.50;;;1.40;;
56631;SDS011;42503;39.928;-75.152;2022-08-21T02:41:15;1.73;;;1.63;;
56631;SDS011;42503;39.928;-75.152;2022-08-21T02:43:17;1.95;;;1.85;;
56631;SDS011;42503;39.928;-75.152;2022-08-21T02:45:18;1.90;;;1.80;;
56631;SDS011;42503;39.928;-75.152;2022-08-21T02:47:19;2.42;;;2.17;;
56631;SDS011;42503;39.928;-75.152;2022-08-21T02:49:20;2.60;;;1.63;;
56631;SDS011;42503;39.928;-75.152;2022-08-21T02:51:21;1.83;;;1.73;;
56631;SDS011;42503;39.928;-75.152;2022-08-21T02:53:23;1.70;;;1.60;;
56631;SDS011;42503;39.928;-75.152;2022-08-21T02:55:25;1.70;;;1.60;;
56631;SDS011;42503;39.928;-75.152;2022-08-21T02:57:27;1.73;;;1.50;;
56631;SDS011;42503;39.928;-75.152;2022-08-21T02:59:28;1.75;;;1.65;;
56631;SDS011;42503;39.928;-75.152;2022-08-21T03:01:29;1.83;;;1.73;;
56631;SDS011;42503;39.928;-75.152;2022-08-21T03:03:29;2.10;;;1.90;;
56631;SDS011;42503;39.928;-75.152;2022-08-21T03:05:31;2.38;;;2.15;;
56631;SDS011;42503;39.928;-75.152;2022-08-21T03:07:32;2.30;;;2.10;;
56631;SDS011;42503;39.928;-75.152;2022-08-21T03:09:34;2.50;;;2.28;;
56631;SDS011;42503;39.928;-75.152;2022-08-21T03:11:35;1.85;;;1.70;;
56631;SDS011;42503;39.928;-75.152;2022-08-21T03:13:36;1.90;;;1.80;;
56631;SDS011;42503;39.928;-75.152;2022-08-21T03:15:37;1.98;;;1.70;;
56631;SDS011;42503;39.928;-75.152;2022-08-21T03:17:38;1.65;;;1.55;;
56631;SDS011;42503;39.928;-75.152;2022-08-21T03:19:39;2.00;;;1.90;;
56631;SDS011;42503;39.928;-75.152;2022-08-21T03:21:40;2.00;;;1.80;;
56631;SDS011;42503;39.928;-75.152;2022-08-21T03:23:41;1.55;;;1.35;;
56631;SDS011;42503;39.928;-75.152;2022-08-21T03:25:42;2.03;;;1.80;;
56631;SDS011;42503;39.928;-75.152;2022-08-21T03:27:43;1.77;;;1.67;;
56631;SDS011;42503;39.928;-75.152;2022-08-21T03:29:44;1.52;;;1.42;;
56631;SDS011;42503;39.928;-75.152;2022-08-21T03:31:45;2.00;;;1.80;;
56631;SDS011;42503;39.928;-75.152;2022-08-21T03:33:46;1.73;;;1.63;;
56631;SDS011;42503;39.928;-75.152;2022-08-21T03:35:54;1.75;;;1.65;;
56631;SDS011;42503;39.928;-75.152;2022-08-21T03:37:56;1.83;;;1.63;;
56631;SDS011;42503;39.928;-75.152;2022-08-21T03:39:57;1.50;;;1.40;;
56631;SDS011;42503;39.928;-75.152;2022-08-21T03:41:58;1.70;;;1.60;;
56631;SDS011;42503;39.928;-75.152;2022-08-21T03:44:00;1.92;;;1.83;;
56631;SDS011;42503;39.928;-75.152;2022-08-21T03:46:01;1.80;;;1.70;;
56631;SDS011;42503;39.928;-75.152;2022-08-21T03:48:03;1.65;;;1.45;;
56631;SDS011;42503;39.928;-75.152;2022-08-21T03:50:04;2.35;;;1.45;;
56631;SDS011;42503;39.928;-75.152;2022-08-21T03:52:05;1.55;;;1.45;;
56631;SDS011;42503;39.928;-75.152;2022-08-21T03:54:06;1.58;;;1.48;;
56631;SDS011;42503;39.928;-75.152;2022-08-21T03:56:07;2.65;;;1.58;;
56631;SDS011;42503;39.928;-75.152;2022-08-21T03:58:08;1.70;;;1.50;;
56631;SDS011;42503;39.928;-75.152;2022-08-21T04:00:10;3.35;;;1.55;;
56631;SDS011;42503;39.928;-75.152;2022-08-21T04:02:12;2.75;;;1.30;;
56631;SDS011;42503;39.928;-75.152;2022-08-21T04:04:16;1.42;;;1.33;;
56631;SDS011;42503;39.928;-75.152;2022-08-21T04:06:17;1.73;;;1.63;;
56631;SDS011;42503;39.928;-75.152;2022-08-21T04:08:18;1.80;;;1.60;;
56631;SDS011;42503;39.928;-75.152;2022-08-21T04:10:19;2.55;;;1.50;;
56631;SDS011;42503;39.928;-75.152;2022-08-21T04:12:20;1.83;;;1.20;;
56631;SDS011;42503;39.928;-75.152;2022-08-21T04:14:24;3.38;;;1.80;;
56631;SDS011;42503;39.928;-75.152;2022-08-21T04:16:25;1.70;;;1.48;;
56631;SDS011;42503;39.928;-75.152;2022-08-21T04:18:26;1.60;;;1.50;;
56631;SDS011;42503;39.928;-75.152;2022-08-21T04:20:27;1.73;;;1.63;;
56631;SDS011;42503;39.928;-75.152;2022-08-21T04:22:27;1.42;;;1.33;;
56631;SDS011;42503;39.928;-75.152;2022-08-21T04:24:28;5.25;;;2.30;;
56631;SDS011;42503;39.928;-75.152;2022-08-21T04:26:29;1.50;;;1.40;;
56631;SDS011;42503;39.928;-75.152;2022-08-21T04:28:31;1.50;;;1.40;;
56631;SDS011;42503;39.928;-75.152;2022-08-21T04:30:32;1.50;;;1.40;;
56631;SDS011;42503;39.928;-75.152;2022-08-21T04:32:33;2.28;;;1.60;;
56631;SDS011;42503;39.928;-75.152;2022-08-21T04:34:33;2.65;;;1.85;;
56631;SDS011;42503;39.928;-75.152;2022-08-21T04:36:34;5.40;;;1.98;;
56631;SDS011;42503;39.928;-75.152;2022-08-21T04:38:36;1.98;;;1.73;;
56631;SDS011;42503;39.928;-75.152;2022-08-21T04:40:36;3.88;;;1.67;;
56631;SDS011;42503;39.928;-75.152;2022-08-21T04:42:42;2.45;;;1.65;;
56631;SDS011;42503;39.928;-75.152;2022-08-21T04:44:44;8.88;;;1.80;;
56631;SDS011;42503;39.928;-75.152;2022-08-21T04:46:45;3.10;;;1.75;;
56631;SDS011;42503;39.928;-75.152;2022-08-21T04:48:45;3.85;;;1.40;;
56631;SDS011;42503;39.928;-75.152;2022-08-21T04:50:50;2.10;;;1.42;;
56631;SDS011;42503;39.928;-75.152;2022-08-21T04:52:52;1.60;;;1.50;;
56631;SDS011;42503;39.928;-75.152;2022-08-21T04:54:55;5.65;;;1.65;;
56631;SDS011;42503;39.928;-75.152;2022-08-21T04:56:57;3.33;;;1.83;;
56631;SDS011;42503;39.928;-75.152;2022-08-21T04:59:00;3.25;;;1.52;;
56631;SDS011;42503;39.928;-75.152;2022-08-21T05:01:04;2.97;;;1.60;;
56631;SDS011;42503;39.928;-75.152;2022-08-21T05:03:07;2.97;;;1.15;;
56631;SDS011;42503;39.928;-75.152;2022-08-21T05:05:09;3.00;;;1.88;;
56631;SDS011;42503;39.928;-75.152;2022-08-21T05:07:14;1.75;;;1.65;;
56631;SDS011;42503;39.928;-75.152;2022-08-21T05:09:17;3.05;;;1.45;;
56631;SDS011;42503;39.928;-75.152;2022-08-21T05:11:18;3.58;;;1.75;;
56631;SDS011;42503;39.928;-75.152;2022-08-21T05:13:20;3.50;;;1.50;;
56631;SDS011;42503;39.928;-75.152;2022-08-21T05:15:21;2.85;;;1.52;;
56631;SDS011;42503;39.928;-75.152;2022-08-21T05:17:22;2.53;;;1.40;;
56631;SDS011;42503;39.928;-75.152;2022-08-21T05:19:23;1.98;;;1.40;;
56631;SDS011;42503;39.928;-75.152;2022-08-21T05:21:24;2.10;;;1.58;;
56631;SDS011;42503;39.928;-75.152;2022-08-21T05:23:28;2.17;;;1.55;;
56631;SDS011;42503;39.928;-75.152;2022-08-21T05:25:29;3.35;;;1.70;;
56631;SDS011;42503;39.928;-75.152;2022-08-21T05:27:30;1.60;;;1.50;;
56631;SDS011;42503;39.928;-75.152;2022-08-21T05:29:31;4.32;;;1.40;;
56631;SDS011;42503;39.928;-75.152;2022-08-21T05:31:32;1.70;;;1.52;;
56631;SDS011;42503;39.928;-75.152;2022-08-21T05:33:33;3.97;;;1.52;;
56631;SDS011;42503;39.928;-75.152;2022-08-21T05:35:34;2.53;;;1.45;;
56631;SDS011;42503;39.928;-75.152;2022-08-21T05:37:34;1.48;;;1.30;;
56631;SDS011;42503;39.928;-75.152;2022-08-21T05:39:35;1.88;;;1.50;;
56631;SDS011;42503;39.928;-75.152;2022-08-21T05:41:36;1.88;;;1.60;;
56631;SDS011;42503;39.928;-75.152;2022-08-21T05:43:37;1.70;;;1.52;;
56631;SDS011;42503;39.928;-75.152;2022-08-21T05:45:41;1.40;;;1.30;;
56631;SDS011;42503;39.928;-75.152;2022-08-21T05:47:42;1.48;;;1.20;;
56631;SDS011;42503;39.928;-75.152;2022-08-21T05:49:42;3.83;;;1.45;;
56631;SDS011;42503;39.928;-75.152;2022-08-21T05:51:43;3.10;;;1.48;;
56631;SDS011;42503;39.928;-75.152;2022-08-21T05:53:44;2.47;;;1.70;;
56631;SDS011;42503;39.928;-75.152;2022-08-21T05:55:45;3.00;;;1.40;;
56631;SDS011;42503;39.928;-75.152;2022-08-21T05:57:46;1.27;;;1.20;;
56631;SDS011;42503;39.928;-75.152;2022-08-21T05:59:47;1.50;;;1.40;;
56631;SDS011;42503;39.928;-75.152;2022-08-21T06:01:48;1.70;;;1.60;;
56631;SDS011;42503;39.928;-75.152;2022-08-21T06:03:49;1.50;;;1.40;;
56631;SDS011;42503;39.928;-75.152;2022-08-21T06:05:50;1.52;;;1.42;;
56631;SDS011;42503;39.928;-75.152;2022-08-21T06:07:51;1.52;;;1.42;;
56631;SDS011;42503;39.928;-75.152;2022-08-21T06:09:52;1.75;;;1.48;;
56631;SDS011;42503;39.928;-75.152;2022-08-21T06:11:53;1.40;;;1.27;;
56631;SDS011;42503;39.928;-75.152;2022-08-21T06:13:57;2.03;;;1.60;;
56631;SDS011;42503;39.928;-75.152;2022-08-21T06:18:11;1.45;;;1.35;;
56631;SDS011;42503;39.928;-75.152;2022-08-21T06:20:12;2.22;;;1.52;;
56631;SDS011;42503;39.928;-75.152;2022-08-21T06:22:13;2.88;;;1.50;;
56631;SDS011;42503;39.928;-75.152;2022-08-21T06:24:14;1.85;;;1.30;;
56631;SDS011;42503;39.928;-75.152;2022-08-21T06:26:17;1.90;;;1.42;;
56631;SDS011;42503;39.928;-75.152;2022-08-21T06:28:18;2.85;;;1.60;;
56631;SDS011;42503;39.928;-75.152;2022-08-21T06:30:19;5.10;;;1.40;;
56631;SDS011;42503;39.928;-75.152;2022-08-21T06:32:20;1.55;;;1.20;;
56631;SDS011;42503;39.928;-75.152;2022-08-21T06:34:21;1.83;;;1.70;;
56631;SDS011;42503;39.928;-75.152;2022-08-21T06:36:25;1.70;;;1.30;;
56631;SDS011;42503;39.928;-75.152;2022-08-21T06:38:26;1.85;;;1.42;;
56631;SDS011;42503;39.928;-75.152;2022-08-21T06:40:27;1.88;;;1.67;;
56631;SDS011;42503;39.928;-75.152;2022-08-21T06:42:28;3.15;;;1.40;;
56631;SDS011;42503;39.928;-75.152;2022-08-21T06:44:29;1.42;;;1.33;;
56631;SDS011;42503;39.928;-75.152;2022-08-21T06:46:30;2.13;;;1.80;;
56631;SDS011;42503;39.928;-75.152;2022-08-21T06:48:31;1.73;;;1.55;;
56631;SDS011;42503;39.928;-75.152;2022-08-21T06:50:34;1.73;;;1.25;;
56631;SDS011;42503;39.928;-75.152;2022-08-21T06:52:37;1.58;;;1.48;;
56631;SDS011;42503;39.928;-75.152;2022-08-21T06:54:39;1.23;;;1.13;;
56631;SDS011;42503;39.928;-75.152;2022-08-21T06:56:42;2.10;;;1.40;;
56631;SDS011;42503;39.928;-75.152;2022-08-21T06:58:43;1.60;;;1.50;;
56631;SDS011;42503;39.928;-75.152;2022-08-21T07:00:45;1.33;;;1.23;;
56631;SDS011;42503;39.928;-75.152;2022-08-21T07:02:47;1.42;;;1.33;;
56631;SDS011;42503;39.928;-75.152;2022-08-21T07:04:48;2.58;;;1.20;;
56631;SDS011;42503;39.928;-75.152;2022-08-21T07:06:49;1.40;;;1.23;;
56631;SDS011;42503;39.928;-75.152;2022-08-21T07:08:49;1.33;;;1.23;;
56631;SDS011;42503;39.928;-75.152;2022-08-21T07:10:50;1.65;;;1.30;;
56631;SDS011;42503;39.928;-75.152;2022-08-21T07:12:52;1.95;;;1.40;;
56631;SDS011;42503;39.928;-75.152;2022-08-21T07:14:55;1.42;;;1.23;;
56631;SDS011;42503;39.928;-75.152;2022-08-21T07:16:58;1.85;;;1.45;;
56631;SDS011;42503;39.928;-75.152;2022-08-21T07:18:59;1.48;;;1.38;;
56631;SDS011;42503;39.928;-75.152;2022-08-21T07:21:01;1.10;;;1.08;;
56631;SDS011;42503;39.928;-75.152;2022-08-21T07:23:07;1.50;;;1.40;;
56631;SDS011;42503;39.928;-75.152;2022-08-21T07:25:14;1.40;;;1.27;;
56631;SDS011;42503;39.928;-75.152;2022-08-21T07:27:15;1.58;;;1.42;;
56631;SDS011;42503;39.928;-75.152;2022-08-21T07:29:19;1.63;;;1.30;;
56631;SDS011;42503;39.928;-75.152;2022-08-21T07:31:23;1.40;;;1.30;;
56631;SDS011;42503;39.928;-75.152;2022-08-21T07:33:25;1.50;;;1.40;;
56631;SDS011;42503;39.928;-75.152;2022-08-21T07:35:26;1.45;;;1.30;;
56631;SDS011;42503;39.928;-75.152;2022-08-21T07:37:31;1.58;;;1.48;;
56631;SDS011;42503;39.928;-75.152;2022-08-21T07:39:32;1.63;;;1.30;;
56631;SDS011;42503;39.928;-75.152;2022-08-21T07:41:33;1.13;;;1.08;;
56631;SDS011;42503;39.928;-75.152;2022-08-21T07:43:38;1.48;;;1.38;;
56631;SDS011;42503;39.928;-75.152;2022-08-21T07:45:38;2.20;;;1.33;;
56631;SDS011;42503;39.928;-75.152;2022-08-21T07:47:39;1.60;;;1.50;;
56631;SDS011;42503;39.928;-75.152;2022-08-21T07:49:40;1.33;;;1.23;;
56631;SDS011;42503;39.928;-75.152;2022-08-21T07:51:41;2.85;;;1.50;;
56631;SDS011;42503;39.928;-75.152;2022-08-21T07:53:47;1.30;;;1.20;;
56631;SDS011;42503;39.928;-75.152;2022-08-21T07:55:48;1.60;;;1.30;;
56631;SDS011;42503;39.928;-75.152;2022-08-21T07:57:49;2.22;;;1.60;;
56631;SDS011;42503;39.928;-75.152;2022-08-21T07:59:50;1.25;;;1.15;;
56631;SDS011;42503;39.928;-75.152;2022-08-21T08:01:51;1.42;;;1.33;;
56631;SDS011;42503;39.928;-75.152;2022-08-21T08:03:51;1.02;;;1.00;;
56631;SDS011;42503;39.928;-75.152;2022-08-21T08:05:52;1.50;;;1.40;;
56631;SDS011;42503;39.928;-75.152;2022-08-21T08:07:53;1.60;;;1.50;;
56631;SDS011;42503;39.928;-75.152;2022-08-21T08:09:54;1.20;;;1.10;;
56631;SDS011;42503;39.928;-75.152;2022-08-21T08:11:58;1.20;;;1.10;;
56631;SDS011;42503;39.928;-75.152;2022-08-21T08:13:59;1.45;;;1.30;;
56631;SDS011;42503;39.928;-75.152;2022-08-21T08:16:00;1.30;;;1.20;;
56631;SDS011;42503;39.928;-75.152;2022-08-21T08:18:01;1.33;;;1.10;;
56631;SDS011;42503;39.928;-75.152;2022-08-21T08:20:01;1.27;;;1.17;;
56631;SDS011;42503;39.928;-75.152;2022-08-21T08:22:11;1.23;;;1.13;;
56631;SDS011;42503;39.928;-75.152;2022-08-21T08:24:12;1.88;;;1.60;;
56631;SDS011;42503;39.928;-75.152;2022-08-21T08:26:16;1.50;;;1.40;;
56631;SDS011;42503;39.928;-75.152;2022-08-21T08:28:17;1.42;;;1.33;;
56631;SDS011;42503;39.928;-75.152;2022-08-21T08:30:19;1.20;;;1.15;;
56631;SDS011;42503;39.928;-75.152;2022-08-21T08:32:20;1.38;;;1.20;;
56631;SDS011;42503;39.928;-75.152;2022-08-21T08:34:22;1.35;;;1.25;;
56631;SDS011;42503;39.928;-75.152;2022-08-21T08:36:31;1.30;;;1.20;;
56631;SDS011;42503;39.928;-75.152;2022-08-21T08:38:32;1.80;;;1.70;;
56631;SDS011;42503;39.928;-75.152;2022-08-21T08:43:03;1.45;;;1.10;;
56631;SDS011;42503;39.928;-75.152;2022-08-21T08:45:10;1.33;;;1.10;;
56631;SDS011;42503;39.928;-75.152;2022-08-21T08:47:12;1.38;;;1.27;;
56631;SDS011;42503;39.928;-75.152;2022-08-21T08:51:25;1.65;;;1.40;;
56631;SDS011;42503;39.928;-75.152;2022-08-21T08:53:32;1.55;;;1.45;;
56631;SDS011;42503;39.928;-75.152;2022-08-21T08:55:37;1.60;;;1.50;;
56631;SDS011;42503;39.928;-75.152;2022-08-21T08:57:41;1.60;;;1.50;;
56631;SDS011;42503;39.928;-75.152;2022-08-21T08:59:44;1.50;;;1.40;;
56631;SDS011;42503;39.928;-75.152;2022-08-21T09:01:45;1.33;;;1.23;;
56631;SDS011;42503;39.928;-75.152;2022-08-21T09:03:46;1.30;;;1.20;;
56631;SDS011;42503;39.928;-75.152;2022-08-21T09:06:02;1.63;;;1.52;;
56631;SDS011;42503;39.928;-75.152;2022-08-21T09:10:20;1.50;;;1.40;;
56631;SDS011;42503;39.928;-75.152;2022-08-21T09:12:29;1.40;;;1.30;;
56631;SDS011;42503;39.928;-75.152;2022-08-21T09:14:47;1.55;;;1.45;;
56631;SDS011;42503;39.928;-75.152;2022-08-21T09:19:11;1.63;;;1.50;;
56631;SDS011;42503;39.928;-75.152;2022-08-21T09:21:27;1.33;;;1.23;;
56631;SDS011;42503;39.928;-75.152;2022-08-21T09:25:34;2.10;;;1.67;;
56631;SDS011;42503;39.928;-75.152;2022-08-21T09:27:40;1.50;;;1.20;;
56631;SDS011;42503;39.928;-75.152;2022-08-21T09:29:44;1.60;;;1.50;;
56631;SDS011;42503;39.928;-75.152;2022-08-21T09:31:45;1.70;;;1.60;;
56631;SDS011;42503;39.928;-75.152;2022-08-21T09:33:46;1.48;;;1.38;;
56631;SDS011;42503;39.928;-75.152;2022-08-21T09:35:53;1.38;;;1.27;;
56631;SDS011;42503;39.928;-75.152;2022-08-21T09:37:58;1.48;;;1.38;;
56631;SDS011;42503;39.928;-75.152;2022-08-21T09:40:00;1.58;;;1.38;;
56631;SDS011;42503;39.928;-75.152;2022-08-21T09:42:03;1.38;;;1.27;;
56631;SDS011;42503;39.928;-75.152;2022-08-21T09:44:07;1.40;;;1.30;;
56631;SDS011;42503;39.928;-75.152;2022-08-21T09:46:27;1.20;;;1.10;;
56631;SDS011;42503;39.928;-75.152;2022-08-21T09:48:28;1.40;;;1.30;;
56631;SDS011;42503;39.928;-75.152;2022-08-21T09:50:32;2.47;;;1.35;;
56631;SDS011;42503;39.928;-75.152;2022-08-21T09:52:41;1.40;;;1.30;;
56631;SDS011;42503;39.928;-75.152;2022-08-21T09:54:43;1.92;;;1.65;;
56631;SDS011;42503;39.928;-75.152;2022-08-21T09:59:18;2.15;;;1.50;;
56631;SDS011;42503;39.928;-75.152;2022-08-21T10:01:21;1.50;;;1.40;;
56631;SDS011;42503;39.928;-75.152;2022-08-21T10:03:25;1.67;;;1.33;;
56631;SDS011;42503;39.928;-75.152;2022-08-21T10:05:26;1.75;;;1.65;;
56631;SDS011;42503;39.928;-75.152;2022-08-21T10:07:28;1.65;;;1.30;;
56631;SDS011;42503;39.928;-75.152;2022-08-21T10:09:29;1.42;;;1.33;;
56631;SDS011;42503;39.928;-75.152;2022-08-21T10:11:33;1.35;;;1.25;;
56631;SDS011;42503;39.928;-75.152;2022-08-21T10:18:01;1.45;;;1.35;;
56631;SDS011;42503;39.928;-75.152;2022-08-21T10:20:22;1.70;;;1.60;;
56631;SDS011;42503;39.928;-75.152;2022-08-21T10:22:27;1.30;;;1.20;;
56631;SDS011;42503;39.928;-75.152;2022-08-21T10:24:45;1.27;;;1.17;;
56631;SDS011;42503;39.928;-75.152;2022-08-21T10:29:08;1.52;;;1.42;;
56631;SDS011;42503;39.928;-75.152;2022-08-21T10:35:49;1.40;;;1.30;;
56631;SDS011;42503;39.928;-75.152;2022-08-21T10:42:17;1.38;;;1.27;;
56631;SDS011;42503;39.928;-75.152;2022-08-21T10:48:47;1.40;;;1.30;;
56631;SDS011;42503;39.928;-75.152;2022-08-21T10:50:50;1.20;;;1.10;;
56631;SDS011;42503;39.928;-75.152;2022-08-21T10:53:15;1.33;;;1.23;;
56631;SDS011;42503;39.928;-75.152;2022-08-21T10:55:19;1.50;;;1.27;;
56631;SDS011;42503;39.928;-75.152;2022-08-21T10:57:28;1.40;;;1.27;;
56631;SDS011;42503;39.928;-75.152;2022-08-21T11:01:42;1.33;;;1.23;;
56631;SDS011;42503;39.928;-75.152;2022-08-21T11:03:50;1.33;;;1.15;;
56631;SDS011;42503;39.928;-75.152;2022-08-21T11:05:58;1.30;;;1.20;;
56631;SDS011;42503;39.928;-75.152;2022-08-21T11:10:25;1.10;;;1.10;;
56631;SDS011;42503;39.928;-75.152;2022-08-21T11:12:27;1.40;;;1.30;;
56631;SDS011;42503;39.928;-75.152;2022-08-21T11:14:53;1.20;;;1.10;;
56631;SDS011;42503;39.928;-75.152;2022-08-21T11:16:57;1.35;;;1.25;;
56631;SDS011;42503;39.928;-75.152;2022-08-21T11:21:25;1.63;;;1.52;;
56631;SDS011;42503;39.928;-75.152;2022-08-21T11:23:37;1.33;;;1.23;;
56631;SDS011;42503;39.928;-75.152;2022-08-21T11:25:44;1.42;;;1.33;;
56631;SDS011;42503;39.928;-75.152;2022-08-21T11:27:49;1.90;;;1.63;;
56631;SDS011;42503;39.928;-75.152;2022-08-21T11:29:55;1.25;;;1.15;;
56631;SDS011;42503;39.928;-75.152;2022-08-21T11:41:28;1.50;;;1.30;;
56631;SDS011;42503;39.928;-75.152;2022-08-21T11:49:53;1.60;;;1.50;;
56631;SDS011;42503;39.928;-75.152;2022-08-21T11:52:11;1.40;;;1.30;;
56631;SDS011;42503;39.928;-75.152;2022-08-21T11:54:35;1.95;;;1.50;;
56631;SDS011;42503;39.928;-75.152;2022-08-21T11:56:43;1.50;;;1.40;;
56631;SDS011;42503;39.928;-75.152;2022-08-21T11:58:53;1.52;;;1.42;;
56631;SDS011;42503;39.928;-75.152;2022-08-21T12:00:56;1.42;;;1.30;;
56631;SDS011;42503;39.928;-75.152;2022-08-21T12:02:58;1.13;;;1.13;;
56631;SDS011;42503;39.928;-75.152;2022-08-21T12:05:06;1.30;;;1.20;;
56631;SDS011;42503;39.928;-75.152;2022-08-21T12:07:10;1.73;;;1.40;;
56631;SDS011;42503;39.928;-75.152;2022-08-21T12:11:25;1.00;;;1.00;;
56631;SDS011;42503;39.928;-75.152;2022-08-21T12:13:27;1.40;;;1.30;;
56631;SDS011;42503;39.928;-75.152;2022-08-21T12:15:31;1.50;;;1.40;;
56631;SDS011;42503;39.928;-75.152;2022-08-21T12:17:36;1.60;;;1.50;;
56631;SDS011;42503;39.928;-75.152;2022-08-21T12:19:37;1.30;;;1.20;;
56631;SDS011;42503;39.928;-75.152;2022-08-21T12:24:02;1.23;;;1.20;;
56631;SDS011;42503;39.928;-75.152;2022-08-21T12:28:08;1.20;;;1.10;;
56631;SDS011;42503;39.928;-75.152;2022-08-21T12:32:45;1.10;;;1.00;;
56631;SDS011;42503;39.928;-75.152;2022-08-21T12:34:54;2.00;;;1.33;;
56631;SDS011;42503;39.928;-75.152;2022-08-21T12:39:38;1.13;;;1.10;;
56631;SDS011;42503;39.928;-75.152;2022-08-21T12:41:45;1.10;;;1.00;;
56631;SDS011;42503;39.928;-75.152;2022-08-21T12:43:47;1.40;;;1.30;;
56631;SDS011;42503;39.928;-75.152;2022-08-21T12:45:49;1.30;;;1.20;;
56631;SDS011;42503;39.928;-75.152;2022-08-21T12:48:03;1.10;;;1.00;;
56631;SDS011;42503;39.928;-75.152;2022-08-21T12:50:09;1.48;;;1.38;;
56631;SDS011;42503;39.928;-75.152;2022-08-21T12:52:22;1.63;;;1.20;;
56631;SDS011;42503;39.928;-75.152;2022-08-21T12:54:27;1.20;;;1.10;;
56631;SDS011;42503;39.928;-75.152;2022-08-21T12:56:33;1.00;;;1.00;;
56631;SDS011;42503;39.928;-75.152;2022-08-21T12:58:39;1.30;;;1.20;;
56631;SDS011;42503;39.928;-75.152;2022-08-21T13:00:40;1.40;;;1.23;;
56631;SDS011;42503;39.928;-75.152;2022-08-21T13:02:48;1.33;;;1.23;;
56631;SDS011;42503;39.928;-75.152;2022-08-21T13:04:49;1.27;;;1.17;;
56631;SDS011;42503;39.928;-75.152;2022-08-21T13:06:51;1.40;;;1.30;;
56631;SDS011;42503;39.928;-75.152;2022-08-21T13:08:55;1.15;;;1.05;;
56631;SDS011;42503;39.928;-75.152;2022-08-21T13:11:02;1.23;;;1.13;;